sensor_id;sensor_type;location;lat;lon;timestamp;pressure;altitude;pressure_sealevel;temperature;humidity
62980;BME280;49075;53.988;27.678;2023-03-16T00:04:14;983.5;;;0.5;74.4
62980;BME280;49075;53.988;27.678;2023-03-16T00:09:06;983.6;;;0.5;74.4
62980;BME280;49075;53.988;27.678;2023-03-16T00:13:44;983.6;;;0.6;74.1
62980;BME280;49075;53.988;27.678;2023-03-16T00:19:22;983.6;;;0.5;74.5
62980;BME280;49075;53.988;27.678;2023-03-16T00:24:22;983.6;;;0.6;74.1
62980;BME280;49075;53.988;27.678;2023-03-16T00:28:36;983.7;;;0.5;74.3
62980;BME280;49075;53.988;27.678;2023-03-16T00:34:14;983.7;;;0.6;73.9
62980;BME280;49075;53.988;27.678;2023-03-16T00:39:06;983.8;;;0.5;74.2
62980;BME280;49075;53.988;27.678;2023-03-16T00:44:06;983.8;;;0.6;73.9
62980;BME280;49075;53.988;27.678;2023-03-16T00:49:14;983.8;;;0.5;74.2
62980;BME280;49075;53.988;27.678;2023-03-16T00:54:06;983.7;;;0.5;74.1
62980;BME280;49075;53.988;27.678;2023-03-16T00:59:22;983.7;;;0.4;74.2
62980;BME280;49075;53.988;27.678;2023-03-16T01:04:22;983.7;;;0.4;74.2
62980;BME280;49075;53.988;27.678;2023-03-16T01:08:36;983.7;;;0.4;74.1
62980;BME280;49075;53.988;27.678;2023-03-16T01:14:22;983.8;;;0.5;73.9
62980;BME280;49075;53.988;27.678;2023-03-16T01:19:06;983.8;;;0.3;74.3
62980;BME280;49075;53.988;27.678;2023-03-16T01:23:44;983.8;;;0.3;74.2
62980;BME280;49075;53.988;27.678;2023-03-16T01:28:44;983.9;;;0.2;74.7
62980;BME280;49075;53.988;27.678;2023-03-16T01:34:14;983.8;;;0.3;74.4
62980;BME280;49075;53.988;27.678;2023-03-16T01:39:06;983.9;;;0.2;74.8
62980;BME280;49075;53.988;27.678;2023-03-16T01:43:58;984;;;0.2;74.6
62980;BME280;49075;53.988;27.678;2023-03-16T01:49:22;984;;;0.2;74.9
62980;BME280;49075;53.988;27.678;2023-03-16T01:53:36;984;;;0.2;74.7
62980;BME280;49075;53.988;27.678;2023-03-16T01:58:58;984;;;0.2;75
62980;BME280;49075;53.988;27.678;2023-03-16T02:04:08;984;;;0.2;74.7
62980;BME280;49075;53.988;27.678;2023-03-16T02:08:36;983.9;;;0.1;75.1
62980;BME280;49075;53.988;27.678;2023-03-16T02:14:02;984;;;0.1;74.7
62980;BME280;49075;53.988;27.678;2023-03-16T02:18:50;984;;;0;75.2
62980;BME280;49075;53.988;27.678;2023-03-16T02:24:22;984;;;0;74.8
62980;BME280;49075;53.988;27.678;2023-03-16T02:29:17;984;;;0;75
62980;BME280;49075;53.988;27.678;2023-03-16T02:34:22;984.1;;;0;74.5
62980;BME280;49075;53.988;27.678;2023-03-16T02:38:58;984.1;;;0;74.7
62980;BME280;49075;53.988;27.678;2023-03-16T02:44:23;984.1;;;0;74.3
62980;BME280;49075;53.988;27.678;2023-03-16T02:48:37;984.1;;;-0.1;74.5
62980;BME280;49075;53.988;27.678;2023-03-16T02:54:06;984.1;;;-0.1;74.2
62980;BME280;49075;53.988;27.678;2023-03-16T02:59:06;984.2;;;-0.2;74.1
62980;BME280;49075;53.988;27.678;2023-03-16T03:04:20;984.2;;;-0.2;73.7
62980;BME280;49075;53.988;27.678;2023-03-16T03:09:14;984.4;;;-0.3;73.7
62980;BME280;49075;53.988;27.678;2023-03-16T03:13:42;984.5;;;-0.3;73.6
62980;BME280;49075;53.988;27.678;2023-03-16T03:18:58;984.5;;;-0.3;73.5
62980;BME280;49075;53.988;27.678;2023-03-16T03:24:22;984.5;;;-0.2;73.3
62980;BME280;49075;53.988;27.678;2023-03-16T03:29:22;984.6;;;-0.4;73.5
62980;BME280;49075;53.988;27.678;2023-03-16T03:33:44;984.7;;;-0.4;73.3
62980;BME280;49075;53.988;27.678;2023-03-16T03:39:14;984.7;;;-0.5;73.5
62980;BME280;49075;53.988;27.678;2023-03-16T03:44:00;984.7;;;-0.6;73.6
62980;BME280;49075;53.988;27.678;2023-03-16T03:48:36;984.8;;;-0.6;73.5
62980;BME280;49075;53.988;27.678;2023-03-16T03:53:58;984.8;;;-0.6;73.4
62980;BME280;49075;53.988;27.678;2023-03-16T03:59:06;984.9;;;-0.7;73.5
62980;BME280;49075;53.988;27.678;2023-03-16T04:04:06;985;;;-0.7;73.3
62980;BME280;49075;53.988;27.678;2023-03-16T04:09:16;985;;;-0.8;73.4
62980;BME280;49075;53.988;27.678;2023-03-16T04:13:52;985.1;;;-0.8;73.1
62980;BME280;49075;53.988;27.678;2023-03-16T04:19:22;985.1;;;-0.8;73.1
62980;BME280;49075;53.988;27.678;2023-03-16T04:23:52;985.1;;;-0.8;73
62980;BME280;49075;53.988;27.678;2023-03-16T04:28:50;985.1;;;-0.9;73.1
62980;BME280;49075;53.988;27.678;2023-03-16T04:33:36;985.1;;;-0.8;72.7
62980;BME280;49075;53.988;27.678;2023-03-16T04:39:14;985.2;;;-0.8;72.6
62980;BME280;49075;53.988;27.678;2023-03-16T04:43:50;985.2;;;-0.9;72.7
62980;BME280;49075;53.988;27.678;2023-03-16T04:49:06;985.2;;;-0.9;72.6
62980;BME280;49075;53.988;27.678;2023-03-16T04:54:22;985.3;;;-0.9;72.7
62980;BME280;49075;53.988;27.678;2023-03-16T04:58:42;985.3;;;-1;72.7
62980;BME280;49075;53.988;27.678;2023-03-16T05:03:44;985.3;;;-1;72.9
62980;BME280;49075;53.988;27.678;2023-03-16T05:09:06;985.3;;;-1;72.9
62980;BME280;49075;53.988;27.678;2023-03-16T05:13:44;985.4;;;-0.9;72.7
62980;BME280;49075;53.988;27.678;2023-03-16T05:19:06;985.4;;;-0.9;72.7
62980;BME280;49075;53.988;27.678;2023-03-16T05:23:50;985.5;;;-0.9;72.7
62980;BME280;49075;53.988;27.678;2023-03-16T05:28:44;985.6;;;-0.8;72.4
62980;BME280;49075;53.988;27.678;2023-03-16T05:34:14;985.7;;;-0.7;72.2
62980;BME280;49075;53.988;27.678;2023-03-16T05:39:22;985.7;;;-0.8;72.1
62980;BME280;49075;53.988;27.678;2023-03-16T05:44:22;985.8;;;-0.7;72.1
62980;BME280;49075;53.988;27.678;2023-03-16T05:49:22;985.8;;;-0.8;72
62980;BME280;49075;53.988;27.678;2023-03-16T05:53:36;985.9;;;-0.6;71.6
62980;BME280;49075;53.988;27.678;2023-03-16T05:59:04;985.9;;;-0.6;71.4
62980;BME280;49075;53.988;27.678;2023-03-16T06:04:18;986.1;;;-0.6;71.3
62980;BME280;49075;53.988;27.678;2023-03-16T06:08:36;986.1;;;-0.5;71.3
62980;BME280;49075;53.988;27.678;2023-03-16T06:14:12;986.1;;;-0.5;70.9
62980;BME280;49075;53.988;27.678;2023-03-16T06:18:48;986.2;;;-0.4;71
62980;BME280;49075;53.988;27.678;2023-03-16T06:23:42;986.2;;;-0.3;70.4
62980;BME280;49075;53.988;27.678;2023-03-16T06:29:20;986.3;;;-0.2;70.4
62980;BME280;49075;53.988;27.678;2023-03-16T06:34:20;986.3;;;-0.1;70
62980;BME280;49075;53.988;27.678;2023-03-16T06:38:36;986.4;;;0;70
62980;BME280;49075;53.988;27.678;2023-03-16T06:44:12;986.4;;;0;69.4
62980;BME280;49075;53.988;27.678;2023-03-16T06:49:20;986.5;;;0.1;69.6
62980;BME280;49075;53.988;27.678;2023-03-16T06:54:04;986.5;;;0.4;68.9
62980;BME280;49075;53.988;27.678;2023-03-16T06:58:56;986.5;;;0.9;68.5
62980;BME280;49075;53.988;27.678;2023-03-16T07:04:04;986.6;;;1.4;67.4
62980;BME280;49075;53.988;27.678;2023-03-16T07:09:20;986.6;;;2.2;66.8
62980;BME280;49075;53.988;27.678;2023-03-16T07:14:20;986.7;;;2.5;64.7
62980;BME280;49075;53.988;27.678;2023-03-16T07:18:36;986.6;;;3.1;65.1
62980;BME280;49075;53.988;27.678;2023-03-16T07:24:20;986.7;;;4;62.8
62980;BME280;49075;53.988;27.678;2023-03-16T07:29:04;986.6;;;4.7;62.4
62980;BME280;49075;53.988;27.678;2023-03-16T07:33:42;986.7;;;4.8;60.5
62980;BME280;49075;53.988;27.678;2023-03-16T07:38:36;986.8;;;4.5;61.8
62980;BME280;49075;53.988;27.678;2023-03-16T07:44:12;986.9;;;4.4;60.7
62980;BME280;49075;53.988;27.678;2023-03-16T07:48:43;987;;;4.5;61.9
62980;BME280;49075;53.988;27.678;2023-03-16T07:54:06;987;;;4.6;60.1
62980;BME280;49075;53.988;27.678;2023-03-16T07:59:22;987;;;5.1;60.3
62980;BME280;49075;53.988;27.678;2023-03-16T08:03:42;987;;;5.3;59.3
62980;BME280;49075;53.988;27.678;2023-03-16T08:09:20;987;;;5.2;58.9
62980;BME280;49075;53.988;27.678;2023-03-16T08:13:36;987;;;5.1;59.1
62980;BME280;49075;53.988;27.678;2023-03-16T08:18:36;987.1;;;5;59.5
62980;BME280;49075;53.988;27.678;2023-03-16T08:24:04;987.1;;;5;59.5
62980;BME280;49075;53.988;27.678;2023-03-16T08:28:49;987.2;;;4.6;58.7
62980;BME280;49075;53.988;27.678;2023-03-16T08:33:43;987.2;;;4.3;58.5
62980;BME280;49075;53.988;27.678;2023-03-16T08:39:14;987.2;;;4.3;59
62980;BME280;49075;53.988;27.678;2023-03-16T08:44:22;987.3;;;4.1;57.9
62980;BME280;49075;53.988;27.678;2023-03-16T08:48:56;987.3;;;4.2;58.7
62980;BME280;49075;53.988;27.678;2023-03-16T08:54:20;987.4;;;4.3;57.1
62980;BME280;49075;53.988;27.678;2023-03-16T08:59:20;987.4;;;4.4;57.7
62980;BME280;49075;53.988;27.678;2023-03-16T09:04:20;987.4;;;4.6;56.8
62980;BME280;49075;53.988;27.678;2023-03-16T09:08:42;987.4;;;5.3;57.3
62980;BME280;49075;53.988;27.678;2023-03-16T09:13:42;987.4;;;5.8;56.1
62980;BME280;49075;53.988;27.678;2023-03-16T09:19:20;987.4;;;6.3;56.1
62980;BME280;49075;53.988;27.678;2023-03-16T09:24:04;987.5;;;6.5;54.4
62980;BME280;49075;53.988;27.678;2023-03-16T09:28:37;987.4;;;6.7;54.6
62980;BME280;49075;53.988;27.678;2023-03-16T09:33:56;987.4;;;6.9;51.9
62980;BME280;49075;53.988;27.678;2023-03-16T09:39:20;987.4;;;7.5;50.9
62980;BME280;49075;53.988;27.678;2023-03-16T09:43:51;987.5;;;7.4;48.9
62980;BME280;49075;53.988;27.678;2023-03-16T09:49:14;987.5;;;7.5;49.7
62980;BME280;49075;53.988;27.678;2023-03-16T09:54:22;987.6;;;7.4;48.1
62980;BME280;49075;53.988;27.678;2023-03-16T09:58:36;987.6;;;7.8;48
62980;BME280;49075;53.988;27.678;2023-03-16T10:03:53;987.6;;;8.5;46.1
62980;BME280;49075;53.988;27.678;2023-03-16T10:09:18;987.7;;;9;46.5
62980;BME280;49075;53.988;27.678;2023-03-16T10:14:21;987.8;;;8.8;47
62980;BME280;49075;53.988;27.678;2023-03-16T10:19:24;987.8;;;9.1;47.9
62980;BME280;49075;53.988;27.678;2023-03-16T10:23:44;987.8;;;9.8;44.6
62980;BME280;49075;53.988;27.678;2023-03-16T10:29:22;987.8;;;11.8;43.4
62980;BME280;49075;53.988;27.678;2023-03-16T10:34:06;987.7;;;13.2;40.4
62980;BME280;49075;53.988;27.678;2023-03-16T10:38:45;987.8;;;12.2;41.8
62980;BME280;49075;53.988;27.678;2023-03-16T10:43:36;987.8;;;10.4;41.5
62980;BME280;49075;53.988;27.678;2023-03-16T10:49:18;987.9;;;9.5;43.3
62980;BME280;49075;53.988;27.678;2023-03-16T10:53:42;988;;;9.1;42.6
62980;BME280;49075;53.988;27.678;2023-03-16T10:59:25;988;;;8.2;44.3
62980;BME280;49075;53.988;27.678;2023-03-16T11:04:20;988.1;;;7.7;43.9
62980;BME280;49075;53.988;27.678;2023-03-16T11:08:50;988.2;;;7.7;44.4
62980;BME280;49075;53.988;27.678;2023-03-16T11:14:24;988.3;;;7.6;44.3
62980;BME280;49075;53.988;27.678;2023-03-16T11:18:43;988.3;;;7.8;44.9
62980;BME280;49075;53.988;27.678;2023-03-16T11:23:58;988.3;;;7.7;43.9
62980;BME280;49075;53.988;27.678;2023-03-16T11:29:08;988.3;;;6.9;45.7
62980;BME280;49075;53.988;27.678;2023-03-16T11:33:36;988.4;;;6.4;46.8
62980;BME280;49075;53.988;27.678;2023-03-16T11:38:43;988.3;;;6.2;47.5
62980;BME280;49075;53.988;27.678;2023-03-16T11:44:15;988.4;;;5.9;48
62980;BME280;49075;53.988;27.678;2023-03-16T11:49:30;988.4;;;5.8;48.1
62980;BME280;49075;53.988;27.678;2023-03-16T11:53:51;988.5;;;5.7;48.2
62980;BME280;49075;53.988;27.678;2023-03-16T11:59:20;988.5;;;6;47.6
62980;BME280;49075;53.988;27.678;2023-03-16T12:04:26;988.5;;;6;46.8
62980;BME280;49075;53.988;27.678;2023-03-16T12:09:56;988.5;;;6.7;46.1
62980;BME280;49075;53.988;27.678;2023-03-16T12:13:59;988.5;;;7.1;44.8
62980;BME280;49075;53.988;27.678;2023-03-16T12:18:46;988.5;;;7;45.4
62980;BME280;49075;53.988;27.678;2023-03-16T12:24:23;988.5;;;7;45.4
62980;BME280;49075;53.988;27.678;2023-03-16T12:29:09;988.5;;;6.8;45
62980;BME280;49075;53.988;27.678;2023-03-16T12:34:17;988.5;;;6.6;45.5
62980;BME280;49075;53.988;27.678;2023-03-16T12:38:59;988.6;;;6.5;45
62980;BME280;49075;53.988;27.678;2023-03-16T12:44:25;988.6;;;6.4;45.2
62980;BME280;49075;53.988;27.678;2023-03-16T12:48:53;988.6;;;6.3;44.4
62980;BME280;49075;53.988;27.678;2023-03-16T12:53:58;988.6;;;6;44.9
62980;BME280;49075;53.988;27.678;2023-03-16T12:58:47;988.7;;;5.8;44.7
62980;BME280;49075;53.988;27.678;2023-03-16T13:03:59;988.7;;;5.7;45.4
62980;BME280;49075;53.988;27.678;2023-03-16T13:08:58;988.7;;;5.7;45.3
62980;BME280;49075;53.988;27.678;2023-03-16T13:14:04;988.8;;;5.9;44.6
62980;BME280;49075;53.988;27.678;2023-03-16T13:18:50;988.8;;;5.8;44.2
62980;BME280;49075;53.988;27.678;2023-03-16T13:24:21;988.8;;;5.7;44.4
62980;BME280;49075;53.988;27.678;2023-03-16T13:28:49;988.8;;;5.3;44.4
62980;BME280;49075;53.988;27.678;2023-03-16T13:34:23;988.8;;;5.3;45.2
62980;BME280;49075;53.988;27.678;2023-03-16T13:39:15;988.8;;;5.3;44
62980;BME280;49075;53.988;27.678;2023-03-16T13:44:17;988.9;;;5.5;44.5
62980;BME280;49075;53.988;27.678;2023-03-16T13:48:58;988.9;;;5.5;43.9
62980;BME280;49075;53.988;27.678;2023-03-16T13:54:03;988.9;;;5.5;44.1
62980;BME280;49075;53.988;27.678;2023-03-16T13:58:43;988.9;;;5.4;43.7
62980;BME280;49075;53.988;27.678;2023-03-16T14:04:09;988.9;;;5.2;44.4
62980;BME280;49075;53.988;27.678;2023-03-16T14:09:23;988.9;;;5;44.3
62980;BME280;49075;53.988;27.678;2023-03-16T14:13:59;989;;;4.9;44.9
62980;BME280;49075;53.988;27.678;2023-03-16T14:19:23;989;;;4.7;44.8
62980;BME280;49075;53.988;27.678;2023-03-16T14:23:51;989.1;;;4.6;44.3
62980;BME280;49075;53.988;27.678;2023-03-16T14:29:16;989.1;;;4.3;44.8
62980;BME280;49075;53.988;27.678;2023-03-16T14:34:18;989.1;;;4.4;45
62980;BME280;49075;53.988;27.678;2023-03-16T14:38:36;989.2;;;4.4;44.8
62980;BME280;49075;53.988;27.678;2023-03-16T14:43:44;989.2;;;4.4;43.3
62980;BME280;49075;53.988;27.678;2023-03-16T14:49:17;989.3;;;4.3;44.1
62980;BME280;49075;53.988;27.678;2023-03-16T14:54:22;989.3;;;4.3;44.2
62980;BME280;49075;53.988;27.678;2023-03-16T14:59:14;989.3;;;4.1;44.6
62980;BME280;49075;53.988;27.678;2023-03-16T15:04:15;989.3;;;4;44.4
62980;BME280;49075;53.988;27.678;2023-03-16T15:09:27;989.3;;;3.8;44.5
62980;BME280;49075;53.988;27.678;2023-03-16T15:14:22;989.4;;;3.7;44.8
62980;BME280;49075;53.988;27.678;2023-03-16T15:18:36;989.4;;;3.7;45
62980;BME280;49075;53.988;27.678;2023-03-16T15:23:44;989.4;;;3.7;45
62980;BME280;49075;53.988;27.678;2023-03-16T15:28:46;989.5;;;3.5;45.1
62980;BME280;49075;53.988;27.678;2023-03-16T15:34:06;989.6;;;3.4;45.7
62980;BME280;49075;53.988;27.678;2023-03-16T15:38:36;989.7;;;3.2;46.2
62980;BME280;49075;53.988;27.678;2023-03-16T15:43:50;989.7;;;3.1;46.5
62980;BME280;49075;53.988;27.678;2023-03-16T15:49:22;989.8;;;3;46.2
62980;BME280;49075;53.988;27.678;2023-03-16T15:53:43;989.9;;;2.8;45.3
62980;BME280;49075;53.988;27.678;2023-03-16T15:59:14;989.9;;;2.6;45.4
62980;BME280;49075;53.988;27.678;2023-03-16T16:04:22;990;;;2.6;45.6
62980;BME280;49075;53.988;27.678;2023-03-16T16:08:58;990.1;;;2.4;45.7
62980;BME280;49075;53.988;27.678;2023-03-16T16:13:58;990.1;;;2.4;46.1
62980;BME280;49075;53.988;27.678;2023-03-16T16:19:07;990.2;;;2.3;46.4
62980;BME280;49075;53.988;27.678;2023-03-16T16:23:58;990.3;;;2.2;46.6
62980;BME280;49075;53.988;27.678;2023-03-16T16:29:04;990.3;;;2.1;46.9
62980;BME280;49075;53.988;27.678;2023-03-16T16:33:36;990.4;;;2.1;47.2
62980;BME280;49075;53.988;27.678;2023-03-16T16:39:14;990.4;;;2.1;47.3
62980;BME280;49075;53.988;27.678;2023-03-16T16:44:15;990.5;;;2;47.4
62980;BME280;49075;53.988;27.678;2023-03-16T16:49:23;990.6;;;1.9;47.7
62980;BME280;49075;53.988;27.678;2023-03-16T16:53:59;990.6;;;1.9;47.7
62980;BME280;49075;53.988;27.678;2023-03-16T16:59:23;990.7;;;1.9;47.9
62980;BME280;49075;53.988;27.678;2023-03-16T17:03:50;990.7;;;1.8;48
62980;BME280;49075;53.988;27.678;2023-03-16T17:08:52;990.8;;;1.8;48.3
62980;BME280;49075;53.988;27.678;2023-03-16T17:13:50;990.9;;;1.8;48.8
62980;BME280;49075;53.988;27.678;2023-03-16T17:19:08;991;;;1.7;49.8
62980;BME280;49075;53.988;27.678;2023-03-16T17:24:14;991;;;1.6;50.4
62980;BME280;49075;53.988;27.678;2023-03-16T17:28:36;991.1;;;1.5;50.8
62980;BME280;49075;53.988;27.678;2023-03-16T17:33:58;991.1;;;1.4;51.9
62980;BME280;49075;53.988;27.678;2023-03-16T17:39:23;991.1;;;1.4;52.2
62980;BME280;49075;53.988;27.678;2023-03-16T17:43:51;991.1;;;1.2;53.8
62980;BME280;49075;53.988;27.678;2023-03-16T17:48:36;991.1;;;1.2;54.1
62980;BME280;49075;53.988;27.678;2023-03-16T17:54:14;991.2;;;1.1;55.1
62980;BME280;49075;53.988;27.678;2023-03-16T17:59:10;991.2;;;1;55
62980;BME280;49075;53.988;27.678;2023-03-16T18:03:50;991.3;;;0.9;56.3
62980;BME280;49075;53.988;27.678;2023-03-16T18:09:15;991.3;;;0.9;55.5
62980;BME280;49075;53.988;27.678;2023-03-16T18:14:08;991.4;;;0.8;56.8
62980;BME280;49075;53.988;27.678;2023-03-16T18:19:22;991.4;;;0.7;56.2
62980;BME280;49075;53.988;27.678;2023-03-16T18:24:22;991.5;;;0.5;57.4
62980;BME280;49075;53.988;27.678;2023-03-16T18:28:50;991.5;;;0.5;57.4
62980;BME280;49075;53.988;27.678;2023-03-16T18:34:24;991.6;;;0.4;58.8
62980;BME280;49075;53.988;27.678;2023-03-16T18:39:09;991.6;;;0.3;58.2
62980;BME280;49075;53.988;27.678;2023-03-16T18:43:42;991.7;;;0.1;59.4
62980;BME280;49075;53.988;27.678;2023-03-16T18:48:44;991.7;;;0;59
62980;BME280;49075;53.988;27.678;2023-03-16T18:54:16;991.8;;;-0.1;60.4
62980;BME280;49075;53.988;27.678;2023-03-16T18:58:42;991.9;;;-0.2;59.7
62980;BME280;49075;53.988;27.678;2023-03-16T19:04:12;991.9;;;-0.3;60.9
62980;BME280;49075;53.988;27.678;2023-03-16T19:09:23;992;;;-0.4;60.4
62980;BME280;49075;53.988;27.678;2023-03-16T19:13:36;992;;;-0.5;61.6
62980;BME280;49075;53.988;27.678;2023-03-16T19:19:23;992.1;;;-0.4;60.7
62980;BME280;49075;53.988;27.678;2023-03-16T19:24:07;992.1;;;-0.5;61.5
62980;BME280;49075;53.988;27.678;2023-03-16T19:28:37;992.2;;;-0.5;61.3
62980;BME280;49075;53.988;27.678;2023-03-16T19:33:47;992.2;;;-0.5;62.1
62980;BME280;49075;53.988;27.678;2023-03-16T19:38:36;992.3;;;-0.5;61.5
62980;BME280;49075;53.988;27.678;2023-03-16T19:43:51;992.3;;;-0.6;62.1
62980;BME280;49075;53.988;27.678;2023-03-16T19:49:23;992.4;;;-0.6;61.3
62980;BME280;49075;53.988;27.678;2023-03-16T19:54:23;992.4;;;-0.7;62.3
62980;BME280;49075;53.988;27.678;2023-03-16T19:59:14;992.4;;;-0.7;61.8
62980;BME280;49075;53.988;27.678;2023-03-16T20:03:36;992.3;;;-0.8;62.5
62980;BME280;49075;53.988;27.678;2023-03-16T20:09:22;992.4;;;-0.8;61.9
62980;BME280;49075;53.988;27.678;2023-03-16T20:14:27;992.4;;;-0.9;62.5
62980;BME280;49075;53.988;27.678;2023-03-16T20:18:36;992.5;;;-1;62.1
62980;BME280;49075;53.988;27.678;2023-03-16T20:23:36;992.5;;;-1.1;62.9
62980;BME280;49075;53.988;27.678;2023-03-16T20:29:23;992.5;;;-1.2;62.4
62980;BME280;49075;53.988;27.678;2023-03-16T20:34:09;992.5;;;-1.3;63.1
62980;BME280;49075;53.988;27.678;2023-03-16T20:38:44;992.6;;;-1.3;62.7
62980;BME280;49075;53.988;27.678;2023-03-16T20:44:08;992.6;;;-1.4;63.2
62980;BME280;49075;53.988;27.678;2023-03-16T20:49:27;992.6;;;-1.4;62.9
62980;BME280;49075;53.988;27.678;2023-03-16T20:53:42;992.6;;;-1.6;64.1
62980;BME280;49075;53.988;27.678;2023-03-16T20:58:58;992.6;;;-1.6;63.4
62980;BME280;49075;53.988;27.678;2023-03-16T21:04:24;992.6;;;-1.7;64.2
62980;BME280;49075;53.988;27.678;2023-03-16T21:08:36;992.6;;;-1.7;63.6
62980;BME280;49075;53.988;27.678;2023-03-16T21:13:51;992.6;;;-1.8;64.7
62980;BME280;49075;53.988;27.678;2023-03-16T21:19:10;992.6;;;-1.8;64.2
62980;BME280;49075;53.988;27.678;2023-03-16T21:23:45;992.6;;;-1.9;65.3
62980;BME280;49075;53.988;27.678;2023-03-16T21:29:09;992.6;;;-1.9;64.5
62980;BME280;49075;53.988;27.678;2023-03-16T21:33:44;992.6;;;-2.1;65.4
62980;BME280;49075;53.988;27.678;2023-03-16T21:39:22;992.7;;;-2.1;64.5
62980;BME280;49075;53.988;27.678;2023-03-16T21:44:14;992.7;;;-2.2;65.5
62980;BME280;49075;53.988;27.678;2023-03-16T21:49:22;992.8;;;-2.2;64.7
62980;BME280;49075;53.988;27.678;2023-03-16T21:53:58;992.8;;;-2.2;65.9
62980;BME280;49075;53.988;27.678;2023-03-16T21:59:14;992.9;;;-2.2;65.2
62980;BME280;49075;53.988;27.678;2023-03-16T22:03:37;992.9;;;-2.3;66.2
62980;BME280;49075;53.988;27.678;2023-03-16T22:09:10;992.9;;;-2.3;65.6
62980;BME280;49075;53.988;27.678;2023-03-16T22:14:22;992.9;;;-2.4;66.5
62980;BME280;49075;53.988;27.678;2023-03-16T22:18:45;992.9;;;-2.3;65.9
62980;BME280;49075;53.988;27.678;2023-03-16T22:24:11;992.9;;;-2.4;66.7
62980;BME280;49075;53.988;27.678;2023-03-16T22:29:11;992.9;;;-2.5;66.4
62980;BME280;49075;53.988;27.678;2023-03-16T22:33:45;993;;;-2.6;67.3
62980;BME280;49075;53.988;27.678;2023-03-16T22:39:08;993;;;-2.6;66.5
62980;BME280;49075;53.988;27.678;2023-03-16T22:43:50;993.1;;;-2.7;67.6
62980;BME280;49075;53.988;27.678;2023-03-16T22:48:36;993.1;;;-2.6;67
62980;BME280;49075;53.988;27.678;2023-03-16T22:54:15;993.2;;;-2.7;67.3
62980;BME280;49075;53.988;27.678;2023-03-16T22:59:23;993.2;;;-2.7;66.6
62980;BME280;49075;53.988;27.678;2023-03-16T23:03:37;993.2;;;-2.8;67.6
62980;BME280;49075;53.988;27.678;2023-03-16T23:08:58;993.3;;;-2.8;66.7
62980;BME280;49075;53.988;27.678;2023-03-16T23:14:23;993.3;;;-2.9;67.8
62980;BME280;49075;53.988;27.678;2023-03-16T23:19:23;993.4;;;-2.9;67
62980;BME280;49075;53.988;27.678;2023-03-16T23:23:45;993.4;;;-3;67.8
62980;BME280;49075;53.988;27.678;2023-03-16T23:28:51;993.5;;;-2.9;67.2
62980;BME280;49075;53.988;27.678;2023-03-16T23:34:25;993.6;;;-3;67.8
62980;BME280;49075;53.988;27.678;2023-03-16T23:39:00;993.6;;;-3;67.5
62980;BME280;49075;53.988;27.678;2023-03-16T23:44:23;993.6;;;-3.1;67.6
62980;BME280;49075;53.988;27.678;2023-03-16T23:48:45;993.6;;;-3;67.7
62980;BME280;49075;53.988;27.678;2023-03-16T23:53:39;993.6;;;-3;67.3
62980;BME280;49075;53.988;27.678;2023-03-16T23:58:45;993.6;;;-3.1;67.6
